sensor_id;sensor_type;location;lat;lon;timestamp;P1;durP1;ratioP1;P2;durP2;ratioP2
13743;SDS011;6943;52.368;9.966;2023-07-30T00:00:43;2.03;;;1.90;;
13743;SDS011;6943;52.368;9.966;2023-07-30T00:03:08;2.97;;;1.97;;
13743;SDS011;6943;52.368;9.966;2023-07-30T00:05:33;2.00;;;1.70;;
13743;SDS011;6943;52.368;9.966;2023-07-30T00:07:59;2.47;;;2.27;;
13743;SDS011;6943;52.368;9.966;2023-07-30T00:10:24;2.37;;;2.13;;
13743;SDS011;6943;52.368;9.966;2023-07-30T00:12:50;2.33;;;1.97;;
13743;SDS011;6943;52.368;9.966;2023-07-30T00:15:16;2.80;;;1.60;;
13743;SDS011;6943;52.368;9.966;2023-07-30T00:17:41;2.80;;;1.73;;
13743;SDS011;6943;52.368;9.966;2023-07-30T00:20:07;2.23;;;2.03;;
13743;SDS011;6943;52.368;9.966;2023-07-30T00:22:33;3.17;;;2.20;;
13743;SDS011;6943;52.368;9.966;2023-07-30T00:24:59;2.77;;;1.87;;
13743;SDS011;6943;52.368;9.966;2023-07-30T00:27:25;2.77;;;2.07;;
13743;SDS011;6943;52.368;9.966;2023-07-30T00:29:50;2.10;;;1.90;;
13743;SDS011;6943;52.368;9.966;2023-07-30T00:32:16;2.40;;;1.80;;
13743;SDS011;6943;52.368;9.966;2023-07-30T00:34:42;5.23;;;2.13;;
13743;SDS011;6943;52.368;9.966;2023-07-30T00:37:07;3.30;;;2.40;;
13743;SDS011;6943;52.368;9.966;2023-07-30T00:39:33;1.90;;;1.70;;
13743;SDS011;6943;52.368;9.966;2023-07-30T00:41:59;2.13;;;1.97;;
13743;SDS011;6943;52.368;9.966;2023-07-30T00:44:24;3.07;;;1.77;;
13743;SDS011;6943;52.368;9.966;2023-07-30T00:46:50;2.33;;;2.13;;
13743;SDS011;6943;52.368;9.966;2023-07-30T00:49:15;2.77;;;1.70;;
13743;SDS011;6943;52.368;9.966;2023-07-30T00:51:41;2.33;;;2.13;;
13743;SDS011;6943;52.368;9.966;2023-07-30T00:54:07;2.30;;;2.10;;
13743;SDS011;6943;52.368;9.966;2023-07-30T00:56:33;3.17;;;2.37;;
13743;SDS011;6943;52.368;9.966;2023-07-30T00:58:59;2.47;;;1.90;;
13743;SDS011;6943;52.368;9.966;2023-07-30T01:01:25;2.20;;;2.00;;
13743;SDS011;6943;52.368;9.966;2023-07-30T01:03:51;3.93;;;2.07;;
13743;SDS011;6943;52.368;9.966;2023-07-30T01:06:17;3.70;;;1.90;;
13743;SDS011;6943;52.368;9.966;2023-07-30T01:08:43;2.70;;;2.47;;
13743;SDS011;6943;52.368;9.966;2023-07-30T01:11:08;3.23;;;2.47;;
13743;SDS011;6943;52.368;9.966;2023-07-30T01:13:35;2.43;;;2.10;;
13743;SDS011;6943;52.368;9.966;2023-07-30T01:16:01;3.00;;;2.80;;
13743;SDS011;6943;52.368;9.966;2023-07-30T01:18:28;3.87;;;2.47;;
13743;SDS011;6943;52.368;9.966;2023-07-30T01:20:53;4.97;;;2.83;;
13743;SDS011;6943;52.368;9.966;2023-07-30T01:23:23;3.60;;;2.50;;
13743;SDS011;6943;52.368;9.966;2023-07-30T01:25:50;2.67;;;2.17;;
13743;SDS011;6943;52.368;9.966;2023-07-30T01:28:34;3.10;;;2.80;;
13743;SDS011;6943;52.368;9.966;2023-07-30T01:31:04;6.00;;;3.20;;
13743;SDS011;6943;52.368;9.966;2023-07-30T01:33:31;4.43;;;2.83;;
13743;SDS011;6943;52.368;9.966;2023-07-30T01:35:57;3.87;;;2.80;;
13743;SDS011;6943;52.368;9.966;2023-07-30T01:38:24;3.47;;;3.00;;
13743;SDS011;6943;52.368;9.966;2023-07-30T01:40:51;3.50;;;3.10;;
13743;SDS011;6943;52.368;9.966;2023-07-30T01:43:17;4.53;;;3.13;;
13743;SDS011;6943;52.368;9.966;2023-07-30T01:45:42;3.73;;;3.10;;
13743;SDS011;6943;52.368;9.966;2023-07-30T01:48:08;6.03;;;3.50;;
13743;SDS011;6943;52.368;9.966;2023-07-30T01:50:34;6.90;;;3.83;;
13743;SDS011;6943;52.368;9.966;2023-07-30T01:52:59;5.90;;;5.30;;
13743;SDS011;6943;52.368;9.966;2023-07-30T01:55:25;5.47;;;4.60;;
13743;SDS011;6943;52.368;9.966;2023-07-30T01:57:50;3.90;;;3.50;;
13743;SDS011;6943;52.368;9.966;2023-07-30T02:00:16;8.13;;;4.27;;
13743;SDS011;6943;52.368;9.966;2023-07-30T02:02:41;8.73;;;7.93;;
13743;SDS011;6943;52.368;9.966;2023-07-30T02:05:07;11.53;;;9.70;;
13743;SDS011;6943;52.368;9.966;2023-07-30T02:07:32;8.17;;;7.47;;
13743;SDS011;6943;52.368;9.966;2023-07-30T02:09:59;8.53;;;6.60;;
13743;SDS011;6943;52.368;9.966;2023-07-30T02:12:25;6.70;;;5.43;;
13743;SDS011;6943;52.368;9.966;2023-07-30T02:14:50;5.53;;;4.37;;
13743;SDS011;6943;52.368;9.966;2023-07-30T02:17:16;6.77;;;6.07;;
13743;SDS011;6943;52.368;9.966;2023-07-30T02:19:41;5.70;;;5.17;;
13743;SDS011;6943;52.368;9.966;2023-07-30T02:22:07;5.97;;;5.37;;
13743;SDS011;6943;52.368;9.966;2023-07-30T02:24:33;6.73;;;6.13;;
13743;SDS011;6943;52.368;9.966;2023-07-30T02:26:58;5.90;;;5.40;;
13743;SDS011;6943;52.368;9.966;2023-07-30T02:29:23;6.50;;;5.83;;
13743;SDS011;6943;52.368;9.966;2023-07-30T02:31:50;8.13;;;5.10;;
13743;SDS011;6943;52.368;9.966;2023-07-30T02:34:15;6.00;;;5.07;;
13743;SDS011;6943;52.368;9.966;2023-07-30T02:36:41;5.37;;;4.20;;
13743;SDS011;6943;52.368;9.966;2023-07-30T02:39:06;6.13;;;5.60;;
13743;SDS011;6943;52.368;9.966;2023-07-30T02:41:32;4.43;;;4.13;;
13743;SDS011;6943;52.368;9.966;2023-07-30T02:43:57;8.37;;;4.73;;
13743;SDS011;6943;52.368;9.966;2023-07-30T02:46:23;5.80;;;5.30;;
13743;SDS011;6943;52.368;9.966;2023-07-30T02:48:48;6.80;;;4.53;;
13743;SDS011;6943;52.368;9.966;2023-07-30T02:51:14;6.40;;;4.80;;
13743;SDS011;6943;52.368;9.966;2023-07-30T02:53:39;8.87;;;4.53;;
13743;SDS011;6943;52.368;9.966;2023-07-30T02:56:07;7.40;;;4.53;;
13743;SDS011;6943;52.368;9.966;2023-07-30T02:58:32;4.57;;;4.17;;
13743;SDS011;6943;52.368;9.966;2023-07-30T03:01:05;5.80;;;4.10;;
13743;SDS011;6943;52.368;9.966;2023-07-30T03:03:34;7.53;;;5.10;;
13743;SDS011;6943;52.368;9.966;2023-07-30T03:06:00;6.80;;;4.43;;
13743;SDS011;6943;52.368;9.966;2023-07-30T03:08:25;7.07;;;4.50;;
13743;SDS011;6943;52.368;9.966;2023-07-30T03:10:51;6.97;;;4.13;;
13743;SDS011;6943;52.368;9.966;2023-07-30T03:13:16;6.90;;;3.63;;
13743;SDS011;6943;52.368;9.966;2023-07-30T03:15:43;5.73;;;4.37;;
13743;SDS011;6943;52.368;9.966;2023-07-30T03:18:08;4.87;;;3.43;;
13743;SDS011;6943;52.368;9.966;2023-07-30T03:20:34;6.37;;;3.97;;
13743;SDS011;6943;52.368;9.966;2023-07-30T03:22:59;4.80;;;3.60;;
13743;SDS011;6943;52.368;9.966;2023-07-30T03:25:25;4.73;;;3.30;;
13743;SDS011;6943;52.368;9.966;2023-07-30T03:27:50;5.17;;;3.40;;
13743;SDS011;6943;52.368;9.966;2023-07-30T03:30:16;5.07;;;3.90;;
13743;SDS011;6943;52.368;9.966;2023-07-30T03:32:41;5.77;;;4.00;;
13743;SDS011;6943;52.368;9.966;2023-07-30T03:35:07;8.23;;;3.37;;
13743;SDS011;6943;52.368;9.966;2023-07-30T03:37:33;5.50;;;3.60;;
13743;SDS011;6943;52.368;9.966;2023-07-30T03:39:58;5.67;;;3.30;;
13743;SDS011;6943;52.368;9.966;2023-07-30T03:42:24;6.53;;;3.00;;
13743;SDS011;6943;52.368;9.966;2023-07-30T03:44:49;7.33;;;3.07;;
13743;SDS011;6943;52.368;9.966;2023-07-30T03:47:15;5.67;;;3.53;;
13743;SDS011;6943;52.368;9.966;2023-07-30T03:49:40;4.57;;;2.83;;
13743;SDS011;6943;52.368;9.966;2023-07-30T03:52:06;4.60;;;3.00;;
13743;SDS011;6943;52.368;9.966;2023-07-30T03:54:31;2.90;;;2.53;;
13743;SDS011;6943;52.368;9.966;2023-07-30T03:56:57;4.37;;;2.70;;
13743;SDS011;6943;52.368;9.966;2023-07-30T03:59:23;3.57;;;2.40;;
13743;SDS011;6943;52.368;9.966;2023-07-30T04:01:48;4.90;;;2.83;;
13743;SDS011;6943;52.368;9.966;2023-07-30T04:04:14;3.27;;;2.47;;
13743;SDS011;6943;52.368;9.966;2023-07-30T04:06:39;3.87;;;2.70;;
13743;SDS011;6943;52.368;9.966;2023-07-30T04:09:05;3.23;;;2.37;;
13743;SDS011;6943;52.368;9.966;2023-07-30T04:11:31;6.47;;;2.90;;
13743;SDS011;6943;52.368;9.966;2023-07-30T04:13:56;5.77;;;2.60;;
13743;SDS011;6943;52.368;9.966;2023-07-30T04:16:22;4.70;;;2.60;;
13743;SDS011;6943;52.368;9.966;2023-07-30T04:18:48;4.90;;;2.63;;
13743;SDS011;6943;52.368;9.966;2023-07-30T04:21:13;5.83;;;2.30;;
13743;SDS011;6943;52.368;9.966;2023-07-30T04:23:40;5.97;;;2.70;;
13743;SDS011;6943;52.368;9.966;2023-07-30T04:26:05;5.80;;;2.37;;
13743;SDS011;6943;52.368;9.966;2023-07-30T04:28:31;4.97;;;2.20;;
13743;SDS011;6943;52.368;9.966;2023-07-30T04:30:56;4.33;;;2.30;;
13743;SDS011;6943;52.368;9.966;2023-07-30T04:33:22;4.53;;;2.40;;
13743;SDS011;6943;52.368;9.966;2023-07-30T04:35:47;3.77;;;2.77;;
13743;SDS011;6943;52.368;9.966;2023-07-30T04:38:13;5.30;;;2.80;;
13743;SDS011;6943;52.368;9.966;2023-07-30T04:40:38;4.50;;;2.53;;
13743;SDS011;6943;52.368;9.966;2023-07-30T04:43:04;3.75;;;2.20;;
13743;SDS011;6943;52.368;9.966;2023-07-30T04:45:30;4.93;;;2.17;;
13743;SDS011;6943;52.368;9.966;2023-07-30T04:47:56;4.50;;;2.40;;
13743;SDS011;6943;52.368;9.966;2023-07-30T04:50:21;3.38;;;2.22;;
13743;SDS011;6943;52.368;9.966;2023-07-30T04:52:47;5.30;;;2.25;;
13743;SDS011;6943;52.368;9.966;2023-07-30T04:55:12;4.53;;;2.22;;
13743;SDS011;6943;52.368;9.966;2023-07-30T04:57:38;5.10;;;2.38;;
13743;SDS011;6943;52.368;9.966;2023-07-30T05:00:04;4.45;;;2.60;;
13743;SDS011;6943;52.368;9.966;2023-07-30T05:02:31;7.60;;;2.30;;
13743;SDS011;6943;52.368;9.966;2023-07-30T05:04:56;2.70;;;2.10;;
13743;SDS011;6943;52.368;9.966;2023-07-30T05:07:21;4.78;;;2.20;;
13743;SDS011;6943;52.368;9.966;2023-07-30T05:09:47;5.25;;;2.40;;
13743;SDS011;6943;52.368;9.966;2023-07-30T05:12:12;4.40;;;2.10;;
13743;SDS011;6943;52.368;9.966;2023-07-30T05:14:38;5.63;;;2.72;;
13743;SDS011;6943;52.368;9.966;2023-07-30T05:17:03;5.65;;;2.70;;
13743;SDS011;6943;52.368;9.966;2023-07-30T05:19:29;5.68;;;2.85;;
13743;SDS011;6943;52.368;9.966;2023-07-30T05:21:55;4.90;;;3.00;;
13743;SDS011;6943;52.368;9.966;2023-07-30T05:24:20;4.40;;;2.70;;
13743;SDS011;6943;52.368;9.966;2023-07-30T05:26:46;7.97;;;3.40;;
13743;SDS011;6943;52.368;9.966;2023-07-30T05:29:12;5.57;;;3.08;;
13743;SDS011;6943;52.368;9.966;2023-07-30T05:31:37;8.60;;;3.35;;
13743;SDS011;6943;52.368;9.966;2023-07-30T05:34:03;6.57;;;2.95;;
13743;SDS011;6943;52.368;9.966;2023-07-30T05:36:28;5.88;;;3.50;;
13743;SDS011;6943;52.368;9.966;2023-07-30T05:38:54;5.15;;;3.50;;
13743;SDS011;6943;52.368;9.966;2023-07-30T05:41:19;6.65;;;3.45;;
13743;SDS011;6943;52.368;9.966;2023-07-30T05:43:46;4.25;;;3.63;;
13743;SDS011;6943;52.368;9.966;2023-07-30T05:46:11;4.43;;;4.03;;
13743;SDS011;6943;52.368;9.966;2023-07-30T05:48:37;5.30;;;4.50;;
13743;SDS011;6943;52.368;9.966;2023-07-30T05:51:03;5.85;;;4.60;;
13743;SDS011;6943;52.368;9.966;2023-07-30T05:53:28;7.47;;;4.75;;
13743;SDS011;6943;52.368;9.966;2023-07-30T05:55:54;6.00;;;5.30;;
13743;SDS011;6943;52.368;9.966;2023-07-30T05:58:19;6.60;;;4.80;;
13743;SDS011;6943;52.368;9.966;2023-07-30T06:00:45;8.10;;;5.15;;
13743;SDS011;6943;52.368;9.966;2023-07-30T06:03:11;6.55;;;4.65;;
13743;SDS011;6943;52.368;9.966;2023-07-30T06:05:40;6.07;;;4.68;;
13743;SDS011;6943;52.368;9.966;2023-07-30T06:08:06;5.57;;;4.50;;
13743;SDS011;6943;52.368;9.966;2023-07-30T06:10:34;7.43;;;5.35;;
13743;SDS011;6943;52.368;9.966;2023-07-30T06:13:03;5.63;;;4.95;;
13743;SDS011;6943;52.368;9.966;2023-07-30T06:15:29;6.70;;;5.00;;
13743;SDS011;6943;52.368;9.966;2023-07-30T06:17:55;6.13;;;4.45;;
13743;SDS011;6943;52.368;9.966;2023-07-30T06:20:21;6.30;;;4.55;;
13743;SDS011;6943;52.368;9.966;2023-07-30T06:22:46;5.90;;;4.35;;
13743;SDS011;6943;52.368;9.966;2023-07-30T06:25:12;6.18;;;4.50;;
13743;SDS011;6943;52.368;9.966;2023-07-30T06:27:37;5.40;;;4.57;;
13743;SDS011;6943;52.368;9.966;2023-07-30T06:30:03;7.22;;;4.40;;
13743;SDS011;6943;52.368;9.966;2023-07-30T06:32:29;5.63;;;4.47;;
13743;SDS011;6943;52.368;9.966;2023-07-30T06:34:55;6.80;;;4.38;;
13743;SDS011;6943;52.368;9.966;2023-07-30T06:37:20;6.13;;;4.30;;
13743;SDS011;6943;52.368;9.966;2023-07-30T06:39:46;6.68;;;4.78;;
13743;SDS011;6943;52.368;9.966;2023-07-30T06:42:11;7.05;;;4.35;;
13743;SDS011;6943;52.368;9.966;2023-07-30T06:44:37;4.72;;;3.83;;
13743;SDS011;6943;52.368;9.966;2023-07-30T06:47:03;6.75;;;3.85;;
13743;SDS011;6943;52.368;9.966;2023-07-30T06:49:28;5.82;;;3.20;;
13743;SDS011;6943;52.368;9.966;2023-07-30T06:51:54;4.53;;;3.50;;
13743;SDS011;6943;52.368;9.966;2023-07-30T06:54:20;4.47;;;3.30;;
13743;SDS011;6943;52.368;9.966;2023-07-30T06:56:46;5.03;;;3.17;;
13743;SDS011;6943;52.368;9.966;2023-07-30T06:59:11;4.88;;;3.38;;
13743;SDS011;6943;52.368;9.966;2023-07-30T07:01:37;5.45;;;2.88;;
13743;SDS011;6943;52.368;9.966;2023-07-30T07:04:02;6.13;;;2.95;;
13743;SDS011;6943;52.368;9.966;2023-07-30T07:06:28;4.10;;;2.70;;
13743;SDS011;6943;52.368;9.966;2023-07-30T07:08:53;3.97;;;3.13;;
13743;SDS011;6943;52.368;9.966;2023-07-30T07:11:19;5.85;;;2.80;;
13743;SDS011;6943;52.368;9.966;2023-07-30T07:13:44;4.85;;;2.72;;
13743;SDS011;6943;52.368;9.966;2023-07-30T07:16:10;5.38;;;2.90;;
13743;SDS011;6943;52.368;9.966;2023-07-30T07:18:35;4.55;;;2.55;;
13743;SDS011;6943;52.368;9.966;2023-07-30T07:21:01;5.30;;;2.17;;
13743;SDS011;6943;52.368;9.966;2023-07-30T07:23:26;4.15;;;2.60;;
13743;SDS011;6943;52.368;9.966;2023-07-30T07:25:52;3.50;;;2.08;;
13743;SDS011;6943;52.368;9.966;2023-07-30T07:28:17;3.72;;;2.10;;
13743;SDS011;6943;52.368;9.966;2023-07-30T07:30:43;3.20;;;2.03;;
13743;SDS011;6943;52.368;9.966;2023-07-30T07:33:09;3.75;;;1.95;;
13743;SDS011;6943;52.368;9.966;2023-07-30T07:35:37;2.33;;;2.03;;
13743;SDS011;6943;52.368;9.966;2023-07-30T07:38:03;5.18;;;2.03;;
13743;SDS011;6943;52.368;9.966;2023-07-30T07:40:29;4.05;;;1.92;;
13743;SDS011;6943;52.368;9.966;2023-07-30T07:42:55;3.40;;;1.90;;
13743;SDS011;6943;52.368;9.966;2023-07-30T07:45:20;4.25;;;1.80;;
13743;SDS011;6943;52.368;9.966;2023-07-30T07:47:46;4.65;;;2.13;;
13743;SDS011;6943;52.368;9.966;2023-07-30T07:50:11;2.85;;;2.00;;
13743;SDS011;6943;52.368;9.966;2023-07-30T07:52:37;4.35;;;1.50;;
13743;SDS011;6943;52.368;9.966;2023-07-30T07:55:03;2.72;;;2.00;;
13743;SDS011;6943;52.368;9.966;2023-07-30T07:57:29;3.58;;;1.70;;
13743;SDS011;6943;52.368;9.966;2023-07-30T07:59:56;2.80;;;1.58;;
13743;SDS011;6943;52.368;9.966;2023-07-30T08:02:21;5.55;;;1.85;;
13743;SDS011;6943;52.368;9.966;2023-07-30T08:04:47;3.13;;;1.60;;
13743;SDS011;6943;52.368;9.966;2023-07-30T08:07:13;3.83;;;1.73;;
13743;SDS011;6943;52.368;9.966;2023-07-30T08:09:38;4.43;;;1.90;;
13743;SDS011;6943;52.368;9.966;2023-07-30T08:12:04;3.30;;;1.70;;
13743;SDS011;6943;52.368;9.966;2023-07-30T08:14:30;3.00;;;1.73;;
13743;SDS011;6943;52.368;9.966;2023-07-30T08:16:56;2.30;;;1.50;;
13743;SDS011;6943;52.368;9.966;2023-07-30T08:19:21;4.65;;;1.70;;
13743;SDS011;6943;52.368;9.966;2023-07-30T08:21:47;4.93;;;1.70;;
13743;SDS011;6943;52.368;9.966;2023-07-30T08:24:12;4.15;;;1.90;;
13743;SDS011;6943;52.368;9.966;2023-07-30T08:26:38;2.67;;;1.70;;
13743;SDS011;6943;52.368;9.966;2023-07-30T08:29:03;2.58;;;1.50;;
13743;SDS011;6943;52.368;9.966;2023-07-30T08:31:30;3.45;;;2.17;;
13743;SDS011;6943;52.368;9.966;2023-07-30T08:33:56;4.63;;;1.90;;
13743;SDS011;6943;52.368;9.966;2023-07-30T08:36:22;4.43;;;1.80;;
13743;SDS011;6943;52.368;9.966;2023-07-30T08:38:47;5.47;;;2.10;;
13743;SDS011;6943;52.368;9.966;2023-07-30T08:41:13;5.00;;;1.95;;
13743;SDS011;6943;52.368;9.966;2023-07-30T08:43:39;4.35;;;1.80;;
13743;SDS011;6943;52.368;9.966;2023-07-30T08:46:05;4.55;;;1.60;;
13743;SDS011;6943;52.368;9.966;2023-07-30T08:48:30;3.50;;;1.80;;
13743;SDS011;6943;52.368;9.966;2023-07-30T08:50:56;4.47;;;2.15;;
13743;SDS011;6943;52.368;9.966;2023-07-30T08:53:25;5.80;;;2.45;;
13743;SDS011;6943;52.368;9.966;2023-07-30T08:55:52;6.20;;;2.15;;
13743;SDS011;6943;52.368;9.966;2023-07-30T08:58:19;4.47;;;2.50;;
13743;SDS011;6943;52.368;9.966;2023-07-30T09:00:46;4.90;;;2.28;;
13743;SDS011;6943;52.368;9.966;2023-07-30T09:03:14;4.80;;;2.10;;
13743;SDS011;6943;52.368;9.966;2023-07-30T09:05:42;3.72;;;2.03;;
13743;SDS011;6943;52.368;9.966;2023-07-30T09:08:07;4.05;;;1.90;;
13743;SDS011;6943;52.368;9.966;2023-07-30T09:10:34;4.60;;;2.22;;
13743;SDS011;6943;52.368;9.966;2023-07-30T09:13:01;7.00;;;2.30;;
13743;SDS011;6943;52.368;9.966;2023-07-30T09:15:37;5.40;;;2.03;;
13743;SDS011;6943;52.368;9.966;2023-07-30T09:18:03;5.60;;;2.28;;
13743;SDS011;6943;52.368;9.966;2023-07-30T09:20:39;4.47;;;2.17;;
13743;SDS011;6943;52.368;9.966;2023-07-30T09:23:06;5.57;;;2.22;;
13743;SDS011;6943;52.368;9.966;2023-07-30T09:25:32;4.72;;;2.53;;
13743;SDS011;6943;52.368;9.966;2023-07-30T09:27:59;5.72;;;2.47;;
13743;SDS011;6943;52.368;9.966;2023-07-30T09:30:25;3.30;;;2.22;;
13743;SDS011;6943;52.368;9.966;2023-07-30T09:32:52;3.60;;;2.08;;
13743;SDS011;6943;52.368;9.966;2023-07-30T09:35:19;4.43;;;2.63;;
13743;SDS011;6943;52.368;9.966;2023-07-30T09:37:45;4.50;;;2.80;;
13743;SDS011;6943;52.368;9.966;2023-07-30T09:40:12;6.75;;;2.63;;
13743;SDS011;6943;52.368;9.966;2023-07-30T09:42:42;6.85;;;2.75;;
13743;SDS011;6943;52.368;9.966;2023-07-30T09:45:08;4.10;;;2.63;;
13743;SDS011;6943;52.368;9.966;2023-07-30T09:47:49;5.07;;;2.88;;
13743;SDS011;6943;52.368;9.966;2023-07-30T09:50:16;6.05;;;3.08;;
13743;SDS011;6943;52.368;9.966;2023-07-30T09:52:42;6.90;;;2.83;;
13743;SDS011;6943;52.368;9.966;2023-07-30T09:55:08;7.07;;;2.92;;
13743;SDS011;6943;52.368;9.966;2023-07-30T09:57:35;5.40;;;2.80;;
13743;SDS011;6943;52.368;9.966;2023-07-30T10:00:02;3.92;;;2.45;;
13743;SDS011;6943;52.368;9.966;2023-07-30T10:02:28;5.35;;;2.20;;
13743;SDS011;6943;52.368;9.966;2023-07-30T10:04:56;5.95;;;2.83;;
13743;SDS011;6943;52.368;9.966;2023-07-30T10:07:25;5.38;;;2.40;;
13743;SDS011;6943;52.368;9.966;2023-07-30T10:09:53;5.32;;;3.03;;
13743;SDS011;6943;52.368;9.966;2023-07-30T10:12:24;6.78;;;2.72;;
13743;SDS011;6943;52.368;9.966;2023-07-30T10:14:55;6.07;;;2.78;;
13743;SDS011;6943;52.368;9.966;2023-07-30T10:17:21;4.88;;;2.83;;
13743;SDS011;6943;52.368;9.966;2023-07-30T10:19:47;4.95;;;2.25;;
13743;SDS011;6943;52.368;9.966;2023-07-30T10:24:40;6.90;;;3.17;;
13743;SDS011;6943;52.368;9.966;2023-07-30T10:27:09;5.80;;;2.85;;
13743;SDS011;6943;52.368;9.966;2023-07-30T10:29:39;4.95;;;3.60;;
13743;SDS011;6943;52.368;9.966;2023-07-30T10:32:07;5.70;;;3.60;;
13743;SDS011;6943;52.368;9.966;2023-07-30T10:34:44;7.38;;;3.75;;
13743;SDS011;6943;52.368;9.966;2023-07-30T10:37:11;8.23;;;4.05;;
13743;SDS011;6943;52.368;9.966;2023-07-30T10:39:43;8.27;;;4.18;;
13743;SDS011;6943;52.368;9.966;2023-07-30T10:42:12;7.00;;;4.20;;
13743;SDS011;6943;52.368;9.966;2023-07-30T10:44:39;6.60;;;4.80;;
13743;SDS011;6943;52.368;9.966;2023-07-30T10:47:08;6.07;;;4.57;;
13743;SDS011;6943;52.368;9.966;2023-07-30T10:49:37;8.00;;;4.90;;
13743;SDS011;6943;52.368;9.966;2023-07-30T10:52:05;8.48;;;5.63;;
13743;SDS011;6943;52.368;9.966;2023-07-30T10:54:34;8.75;;;5.10;;
13743;SDS011;6943;52.368;9.966;2023-07-30T10:56:59;6.47;;;4.68;;
13743;SDS011;6943;52.368;9.966;2023-07-30T10:59:25;6.93;;;5.10;;
13743;SDS011;6943;52.368;9.966;2023-07-30T11:01:52;8.77;;;5.35;;
13743;SDS011;6943;52.368;9.966;2023-07-30T11:04:18;8.77;;;5.32;;
13743;SDS011;6943;52.368;9.966;2023-07-30T11:06:49;9.07;;;5.40;;
13743;SDS011;6943;52.368;9.966;2023-07-30T11:11:48;8.15;;;6.00;;
13743;SDS011;6943;52.368;9.966;2023-07-30T11:14:19;8.10;;;5.28;;
13743;SDS011;6943;52.368;9.966;2023-07-30T11:19:15;10.02;;;6.63;;
13743;SDS011;6943;52.368;9.966;2023-07-30T11:21:46;8.00;;;5.93;;
13743;SDS011;6943;52.368;9.966;2023-07-30T11:24:12;7.53;;;6.13;;
13743;SDS011;6943;52.368;9.966;2023-07-30T11:26:38;9.43;;;6.38;;
13743;SDS011;6943;52.368;9.966;2023-07-30T11:29:16;7.70;;;5.38;;
13743;SDS011;6943;52.368;9.966;2023-07-30T11:31:43;9.98;;;6.05;;
13743;SDS011;6943;52.368;9.966;2023-07-30T11:34:09;8.43;;;6.57;;
13743;SDS011;6943;52.368;9.966;2023-07-30T11:36:35;9.50;;;6.20;;
13743;SDS011;6943;52.368;9.966;2023-07-30T11:39:01;8.20;;;6.05;;
13743;SDS011;6943;52.368;9.966;2023-07-30T11:41:27;7.90;;;6.80;;
13743;SDS011;6943;52.368;9.966;2023-07-30T11:43:57;12.65;;;7.38;;
13743;SDS011;6943;52.368;9.966;2023-07-30T11:46:22;7.10;;;6.40;;
13743;SDS011;6943;52.368;9.966;2023-07-30T11:48:49;9.25;;;6.70;;
13743;SDS011;6943;52.368;9.966;2023-07-30T11:53:52;8.95;;;7.07;;
13743;SDS011;6943;52.368;9.966;2023-07-30T11:56:20;10.30;;;7.95;;
13743;SDS011;6943;52.368;9.966;2023-07-30T11:58:47;10.00;;;8.15;;
13743;SDS011;6943;52.368;9.966;2023-07-30T12:01:14;11.07;;;8.32;;
13743;SDS011;6943;52.368;9.966;2023-07-30T12:03:41;8.65;;;7.57;;
13743;SDS011;6943;52.368;9.966;2023-07-30T12:06:07;8.93;;;7.43;;
13743;SDS011;6943;52.368;9.966;2023-07-30T12:08:34;9.98;;;7.43;;
13743;SDS011;6943;52.368;9.966;2023-07-30T12:11:07;9.55;;;7.32;;
13743;SDS011;6943;52.368;9.966;2023-07-30T12:13:33;10.45;;;7.68;;
13743;SDS011;6943;52.368;9.966;2023-07-30T12:16:06;11.85;;;7.70;;
13743;SDS011;6943;52.368;9.966;2023-07-30T12:18:32;10.77;;;7.10;;
13743;SDS011;6943;52.368;9.966;2023-07-30T12:20:57;8.48;;;7.53;;
13743;SDS011;6943;52.368;9.966;2023-07-30T12:23:23;10.00;;;7.32;;
13743;SDS011;6943;52.368;9.966;2023-07-30T12:25:49;8.93;;;7.25;;
13743;SDS011;6943;52.368;9.966;2023-07-30T12:28:15;9.60;;;7.47;;
13743;SDS011;6943;52.368;9.966;2023-07-30T12:30:41;11.77;;;7.40;;
13743;SDS011;6943;52.368;9.966;2023-07-30T12:33:06;10.10;;;7.40;;
13743;SDS011;6943;52.368;9.966;2023-07-30T12:35:32;7.57;;;6.85;;
13743;SDS011;6943;52.368;9.966;2023-07-30T12:37:58;7.90;;;7.00;;
13743;SDS011;6943;52.368;9.966;2023-07-30T12:40:24;7.63;;;6.53;;
13743;SDS011;6943;52.368;9.966;2023-07-30T12:42:50;7.38;;;6.45;;
13743;SDS011;6943;52.368;9.966;2023-07-30T12:45:16;7.93;;;6.35;;
13743;SDS011;6943;52.368;9.966;2023-07-30T12:47:41;7.15;;;5.95;;
13743;SDS011;6943;52.368;9.966;2023-07-30T12:50:07;7.82;;;5.90;;
13743;SDS011;6943;52.368;9.966;2023-07-30T12:52:33;8.65;;;6.30;;
13743;SDS011;6943;52.368;9.966;2023-07-30T12:55:00;7.93;;;5.28;;
13743;SDS011;6943;52.368;9.966;2023-07-30T12:57:26;7.97;;;5.40;;
13743;SDS011;6943;52.368;9.966;2023-07-30T12:59:52;9.13;;;5.05;;
13743;SDS011;6943;52.368;9.966;2023-07-30T13:02:17;7.30;;;5.13;;
13743;SDS011;6943;52.368;9.966;2023-07-30T13:04:43;8.73;;;5.25;;
13743;SDS011;6943;52.368;9.966;2023-07-30T13:07:08;5.57;;;4.32;;
13743;SDS011;6943;52.368;9.966;2023-07-30T13:09:34;6.70;;;4.97;;
13743;SDS011;6943;52.368;9.966;2023-07-30T13:11:59;7.10;;;4.55;;
13743;SDS011;6943;52.368;9.966;2023-07-30T13:14:25;7.53;;;4.30;;
13743;SDS011;6943;52.368;9.966;2023-07-30T13:16:50;5.80;;;4.47;;
13743;SDS011;6943;52.368;9.966;2023-07-30T13:19:16;4.90;;;4.32;;
13743;SDS011;6943;52.368;9.966;2023-07-30T13:21:41;6.07;;;4.53;;
13743;SDS011;6943;52.368;9.966;2023-07-30T13:24:07;8.15;;;4.82;;
13743;SDS011;6943;52.368;9.966;2023-07-30T13:26:32;7.97;;;4.60;;
13743;SDS011;6943;52.368;9.966;2023-07-30T13:28:59;6.15;;;4.72;;
13743;SDS011;6943;52.368;9.966;2023-07-30T13:31:25;6.75;;;4.15;;
13743;SDS011;6943;52.368;9.966;2023-07-30T13:33:50;7.00;;;4.57;;
13743;SDS011;6943;52.368;9.966;2023-07-30T13:36:16;6.10;;;4.40;;
13743;SDS011;6943;52.368;9.966;2023-07-30T13:38:42;6.45;;;4.30;;
13743;SDS011;6943;52.368;9.966;2023-07-30T13:41:08;6.97;;;4.07;;
13743;SDS011;6943;52.368;9.966;2023-07-30T13:43:34;6.55;;;4.07;;
13743;SDS011;6943;52.368;9.966;2023-07-30T13:45:59;5.50;;;3.53;;
13743;SDS011;6943;52.368;9.966;2023-07-30T13:48:25;6.50;;;3.90;;
13743;SDS011;6943;52.368;9.966;2023-07-30T13:50:51;5.00;;;3.50;;
13743;SDS011;6943;52.368;9.966;2023-07-30T13:53:17;6.10;;;3.70;;
13743;SDS011;6943;52.368;9.966;2023-07-30T13:55:42;4.72;;;3.60;;
13743;SDS011;6943;52.368;9.966;2023-07-30T13:58:08;5.85;;;3.95;;
13743;SDS011;6943;52.368;9.966;2023-07-30T14:00:34;5.63;;;3.83;;
13743;SDS011;6943;52.368;9.966;2023-07-30T14:02:59;6.68;;;4.25;;
13743;SDS011;6943;52.368;9.966;2023-07-30T14:05:25;7.30;;;4.18;;
13743;SDS011;6943;52.368;9.966;2023-07-30T14:07:52;8.20;;;4.40;;
13743;SDS011;6943;52.368;9.966;2023-07-30T14:10:19;5.72;;;4.18;;
13743;SDS011;6943;52.368;9.966;2023-07-30T14:12:44;5.70;;;4.47;;
13743;SDS011;6943;52.368;9.966;2023-07-30T14:15:10;7.38;;;4.38;;
13743;SDS011;6943;52.368;9.966;2023-07-30T14:17:35;6.10;;;4.00;;
13743;SDS011;6943;52.368;9.966;2023-07-30T14:20:01;7.13;;;3.28;;
13743;SDS011;6943;52.368;9.966;2023-07-30T14:22:27;6.32;;;3.65;;
13743;SDS011;6943;52.368;9.966;2023-07-30T14:24:52;4.55;;;2.80;;
13743;SDS011;6943;52.368;9.966;2023-07-30T14:27:18;6.68;;;3.08;;
13743;SDS011;6943;52.368;9.966;2023-07-30T14:29:44;7.03;;;3.30;;
13743;SDS011;6943;52.368;9.966;2023-07-30T14:32:10;7.53;;;2.92;;
13743;SDS011;6943;52.368;9.966;2023-07-30T14:34:35;7.35;;;2.95;;
13743;SDS011;6943;52.368;9.966;2023-07-30T14:37:01;6.40;;;2.83;;
13743;SDS011;6943;52.368;9.966;2023-07-30T14:39:26;3.42;;;2.65;;
13743;SDS011;6943;52.368;9.966;2023-07-30T14:41:52;5.22;;;2.42;;
13743;SDS011;6943;52.368;9.966;2023-07-30T14:44:17;4.93;;;2.50;;
13743;SDS011;6943;52.368;9.966;2023-07-30T14:46:43;5.28;;;2.45;;
13743;SDS011;6943;52.368;9.966;2023-07-30T14:49:09;5.00;;;2.00;;
13743;SDS011;6943;52.368;9.966;2023-07-30T14:51:35;5.03;;;2.28;;
13743;SDS011;6943;52.368;9.966;2023-07-30T14:54:00;4.57;;;2.20;;
13743;SDS011;6943;52.368;9.966;2023-07-30T14:56:28;3.78;;;1.88;;
13743;SDS011;6943;52.368;9.966;2023-07-30T14:58:53;5.03;;;2.40;;
13743;SDS011;6943;52.368;9.966;2023-07-30T15:01:19;6.13;;;2.35;;
13743;SDS011;6943;52.368;9.966;2023-07-30T15:03:44;5.78;;;2.80;;